Time;durP1;ratioP1;P1;durP2;ratioP2;P2;SDS_P1;SDS_P2;PMS_P1;PMS_P2;Temp;Humidity;BMP_temperature;BMP_pressure;BME280_temperature;BME280_humidity;BME280_pressure;Samples;Min_cycle;Max_cycle;Signal;HPM_P1;HPM_P2
2023/12/28 00:01:44;;;;;;;4.38;1.50;;;;;;;3.88;76.89;97315.16;4999364;28;20056;-64
2023/12/28 00:04:10;;;;;;;2.38;1.27;;;;;;;3.61;78.85;97325.13;5005904;28;20046;-64
2023/12/28 00:06:37;;;;;;;2.40;1.33;;;;;;;3.43;80.35;97326.56;5003166;28;20070;-63
2023/12/28 00:09:03;;;;;;;3.38;1.30;;;;;;;3.29;81.41;97327.59;4999613;28;20034;-63
2023/12/28 00:11:38;;;;;;;2.80;1.40;;;;;;;3.21;82.12;97324.09;5004379;28;20073;-63
2023/12/28 00:14:05;;;;;;;2.25;1.45;;;;;;;3.25;81.09;97322.66;4994267;28;20045;-63
2023/12/28 00:16:37;;;;;;;3.67;1.38;;;;;;;3.27;81.44;97327.00;5005287;28;20046;-64
2023/12/28 00:19:04;;;;;;;5.55;1.30;;;;;;;3.46;79.23;97333.38;4998439;28;20038;-63
2023/12/28 00:21:31;;;;;;;3.17;0.93;;;;;;;3.80;76.39;97323.44;4977542;28;20109;-63
2023/12/28 00:23:58;;;;;;;2.83;1.13;;;;;;;4.49;70.31;97324.88;4990143;28;20049;-64
2023/12/28 00:26:24;;;;;;;2.08;1.15;;;;;;;5.15;66.76;97327.31;5004522;28;20046;-64
2023/12/28 00:29:01;;;;;;;2.17;1.02;;;;;;;5.75;63.18;97331.38;4999653;28;20038;-63
2023/12/28 00:31:27;;;;;;;2.58;1.20;;;;;;;6.19;60.76;97336.72;5017004;28;20068;-63
2023/12/28 00:33:54;;;;;;;2.78;1.23;;;;;;;6.45;59.93;97323.19;5004260;28;20782;-63
2023/12/28 00:36:23;;;;;;;2.65;1.00;;;;;;;6.55;59.66;97328.84;5005695;28;20053;-63
2023/12/28 00:38:49;;;;;;;3.55;0.90;;;;;;;6.63;58.66;97333.91;5004276;28;20084;-63
2023/12/28 00:41:16;;;;;;;2.45;1.05;;;;;;;6.70;58.38;97327.63;5005279;28;20117;-64
2023/12/28 00:43:42;;;;;;;2.67;1.30;;;;;;;6.71;58.31;97331.97;4989275;28;20054;-63
2023/12/28 00:46:09;;;;;;;2.42;1.00;;;;;;;6.69;58.91;97323.28;4999828;28;20041;-63
2023/12/28 00:48:36;;;;;;;3.05;1.00;;;;;;;6.70;58.99;97320.38;5002558;28;20048;-63
2023/12/28 00:51:03;;;;;;;2.78;1.30;;;;;;;6.75;58.74;97323.19;5004655;28;20140;-63
2023/12/28 00:53:29;;;;;;;2.78;1.20;;;;;;;6.84;58.06;97323.72;4997904;28;20054;-63
2023/12/28 00:55:56;;;;;;;2.70;1.08;;;;;;;6.95;57.57;97321.28;5002052;28;20044;-63
2023/12/28 00:58:22;;;;;;;2.85;1.23;;;;;;;7.05;57.12;97332.31;5005587;28;20129;-63
2023/12/28 01:00:49;;;;;;;3.65;1.63;;;;;;;7.08;57.18;97331.84;4993265;28;20683;-62
2023/12/28 01:03:15;;;;;;;2.88;1.33;;;;;;;6.97;57.71;97333.44;5003619;28;20502;-63
2023/12/28 01:05:42;;;;;;;2.85;1.40;;;;;;;6.81;58.78;97332.22;5004353;28;20077;-63
2023/12/28 01:08:09;;;;;;;3.00;1.00;;;;;;;6.48;61.14;97345.09;5004324;28;20041;-63
2023/12/28 01:10:35;;;;;;;1.90;1.00;;;;;;;6.07;63.40;97342.03;5004234;28;20045;-62
2023/12/28 01:13:02;;;;;;;2.42;1.23;;;;;;;5.70;64.38;97345.47;5001152;28;20453;-63
2023/12/28 01:15:28;;;;;;;2.63;0.90;;;;;;;5.53;65.09;97342.50;5000918;28;20653;-64
2023/12/28 01:17:55;;;;;;;2.63;1.25;;;;;;;5.29;66.33;97345.00;4997974;28;20080;-63
2023/12/28 01:20:23;;;;;;;2.55;1.20;;;;;;;5.32;65.23;97347.25;5002650;28;20077;-64
2023/12/28 01:22:50;;;;;;;2.28;0.90;;;;;;;5.37;65.29;97341.22;5002505;28;20213;-63
2023/12/28 01:25:16;;;;;;;2.92;1.63;;;;;;;5.64;63.66;97337.47;5000048;28;20054;-63
2023/12/28 01:27:43;;;;;;;4.43;0.90;;;;;;;5.89;62.70;97353.56;5002511;28;20081;-63
2023/12/28 01:30:10;;;;;;;3.75;1.25;;;;;;;5.98;62.37;97349.53;5003539;28;20666;-63
2023/12/28 01:32:37;;;;;;;2.25;1.10;;;;;;;5.94;62.92;97352.91;5000934;28;20054;-64
2023/12/28 01:35:04;;;;;;;2.88;1.40;;;;;;;5.91;62.73;97366.78;5005270;28;20037;-63
2023/12/28 01:37:33;;;;;;;2.33;1.10;;;;;;;5.93;62.92;97364.69;5004017;28;20543;-63
2023/12/28 01:40:00;;;;;;;2.65;1.13;;;;;;;5.84;63.41;97366.84;5001146;28;20045;-63
2023/12/28 01:42:29;;;;;;;2.80;1.10;;;;;;;5.77;64.02;97364.22;5003971;28;20132;-63
2023/12/28 01:44:57;;;;;;;2.30;0.90;;;;;;;5.76;64.09;97356.38;4997588;28;20046;-63
2023/12/28 01:47:28;;;;;;;3.10;1.20;;;;;;;5.81;64.00;97375.34;5003809;28;20108;-63
2023/12/28 01:49:56;;;;;;;2.80;1.25;;;;;;;5.81;63.75;97362.72;5003750;28;20038;-63
2023/12/28 01:52:23;;;;;;;1.90;0.88;;;;;;;5.85;63.95;97384.59;5004608;28;20050;-64
2023/12/28 01:54:50;;;;;;;2.88;1.27;;;;;;;5.94;63.25;97377.88;4998206;28;20038;-64
2023/12/28 01:57:17;;;;;;;2.38;1.13;;;;;;;6.01;62.73;97379.72;5002795;28;20050;-64
2023/12/28 01:59:44;;;;;;;4.07;1.23;;;;;;;5.89;63.98;97385.00;5002492;28;20104;-64
2023/12/28 02:02:11;;;;;;;2.53;1.15;;;;;;;5.84;63.62;97391.84;5003115;28;20551;-63
2023/12/28 02:04:38;;;;;;;2.35;1.00;;;;;;;5.88;63.70;97383.34;5002685;28;20054;-63
2023/12/28 02:07:05;;;;;;;2.30;1.00;;;;;;;5.81;64.13;97386.91;4993256;28;20072;-62
2023/12/28 02:09:32;;;;;;;2.67;1.20;;;;;;;5.85;63.82;97388.13;5000593;28;20037;-63
2023/12/28 02:11:59;;;;;;;2.65;1.05;;;;;;;5.85;63.82;97390.81;5000996;28;20117;-64
2023/12/28 02:14:26;;;;;;;1.95;1.10;;;;;;;5.93;63.67;97389.69;5000268;28;20045;-64
2023/12/28 02:17:10;;;;;;;2.97;1.10;;;;;;;5.90;63.53;97383.94;5001954;28;20056;-64
2023/12/28 02:19:57;;;;;;;2.53;0.98;;;;;;;6.19;62.15;97389.69;4995182;28;20606;-63
2023/12/28 02:22:26;;;;;;;1.77;0.98;;;;;;;6.33;61.36;97379.59;4999595;28;20125;-63
2023/12/28 02:25:13;;;;;;;1.80;1.02;;;;;;;6.39;61.39;97381.41;4992439;28;20058;-63
2023/12/28 02:27:46;;;;;;;2.75;1.10;;;;;;;6.44;60.87;97392.31;4994292;28;20056;-63
2023/12/28 02:30:16;;;;;;;2.90;1.30;;;;;;;6.42;61.60;97390.88;4997383;28;20046;-64
2023/12/28 02:33:15;;;;;;;3.80;1.20;;;;;;;6.55;60.43;97388.03;4993875;28;20104;-62
2023/12/28 02:35:47;;;;;;;1.73;0.90;;;;;;;6.67;60.13;97384.59;5000367;28;20562;-63
2023/12/28 02:38:15;;;;;;;3.38;1.00;;;;;;;6.78;59.35;97374.94;5000889;28;20509;-63
2023/12/28 02:40:43;;;;;;;2.85;1.23;;;;;;;6.85;59.34;97372.97;4995005;28;20050;-63
2023/12/28 02:43:12;;;;;;;2.55;1.15;;;;;;;6.97;58.43;97367.63;5000465;28;20125;-64
2023/12/28 02:45:39;;;;;;;2.28;1.10;;;;;;;6.98;58.45;97364.72;4995152;28;20073;-63
2023/12/28 02:48:07;;;;;;;3.83;1.30;;;;;;;7.06;58.03;97370.81;5002149;28;20038;-63
2023/12/28 02:50:35;;;;;;;2.25;1.05;;;;;;;7.20;57.22;97366.91;5001579;28;20041;-63
2023/12/28 02:53:02;;;;;;;1.98;0.93;;;;;;;7.31;56.78;97367.13;4996270;28;20116;-64
2023/12/28 02:55:28;;;;;;;3.72;0.90;;;;;;;7.45;55.75;97368.59;4999277;28;20042;-64
2023/12/28 02:57:59;;;;;;;2.33;0.90;;;;;;;7.61;55.63;97371.63;5000694;28;20073;-63
2023/12/28 03:00:28;;;;;;;2.88;1.20;;;;;;;7.72;55.15;97364.63;4998737;28;20038;-63
2023/12/28 03:02:55;;;;;;;1.92;1.00;;;;;;;7.76;55.23;97372.00;5003141;28;20034;-64
2023/12/28 03:05:22;;;;;;;2.13;0.90;;;;;;;7.82;55.06;97378.34;4996815;28;20046;-64
2023/12/28 03:07:48;;;;;;;2.72;1.08;;;;;;;7.88;54.97;97377.41;5000687;28;20083;-63
2023/12/28 03:10:15;;;;;;;2.15;1.00;;;;;;;7.87;55.10;97378.47;5002525;28;20033;-63
2023/12/28 03:12:42;;;;;;;2.78;1.17;;;;;;;7.89;55.15;97376.34;4992784;28;20053;-63
2023/12/28 03:15:09;;;;;;;2.47;1.00;;;;;;;7.91;55.16;97376.09;4997166;28;20057;-63
2023/12/28 03:17:36;;;;;;;1.80;0.80;;;;;;;7.87;55.34;97369.53;5005795;28;20038;-64
2023/12/28 03:20:05;;;;;;;2.80;1.20;;;;;;;7.91;54.62;97365.31;4996473;28;20127;-63
2023/12/28 03:22:31;;;;;;;1.80;1.10;;;;;;;7.93;55.05;97369.44;5003611;28;20042;-64
2023/12/28 03:24:58;;;;;;;2.08;1.08;;;;;;;8.01;54.46;97365.56;5005151;28;20042;-63
2023/12/28 03:27:24;;;;;;;2.75;1.13;;;;;;;8.16;54.17;97375.03;5007238;28;20440;-63
2023/12/28 03:29:51;;;;;;;3.70;1.20;;;;;;;8.29;53.83;97360.50;5005084;28;20034;-64
2023/12/28 03:32:18;;;;;;;2.67;1.10;;;;;;;8.49;53.56;97356.56;5001931;28;20042;-64
2023/12/28 03:34:44;;;;;;;2.35;1.00;;;;;;;8.55;53.26;97358.34;5003025;28;20054;-64
2023/12/28 03:37:11;;;;;;;2.53;1.15;;;;;;;8.62;52.93;97353.63;4996097;28;20045;-64
2023/12/28 03:39:38;;;;;;;4.03;1.35;;;;;;;8.65;53.07;97353.16;4998378;28;20549;-64
2023/12/28 03:42:05;;;;;;;2.55;1.00;;;;;;;8.64;53.30;97348.00;5000204;28;20048;-63
2023/12/28 03:44:31;;;;;;;4.25;1.08;;;;;;;8.68;53.26;97355.38;5001980;28;20533;-63
2023/12/28 03:46:58;;;;;;;1.95;0.98;;;;;;;8.85;52.65;97352.72;4997105;28;20489;-63
2023/12/28 03:49:24;;;;;;;2.35;1.00;;;;;;;8.90;52.80;97346.59;5004898;28;20038;-63
2023/12/28 03:51:51;;;;;;;1.80;0.85;;;;;;;8.90;53.08;97346.59;5004176;28;20568;-64
2023/12/28 03:54:19;;;;;;;4.30;1.08;;;;;;;8.93;53.04;97342.59;5000650;28;20057;-63
2023/12/28 03:56:46;;;;;;;3.35;1.23;;;;;;;9.00;52.87;97345.97;4998663;28;20070;-63
2023/12/28 03:59:15;;;;;;;1.48;0.90;;;;;;;9.07;52.88;97343.94;5004310;28;20571;-64
2023/12/28 04:01:42;;;;;;;2.42;1.10;;;;;;;9.09;52.94;97344.53;5002233;28;20537;-64
2023/12/28 04:04:09;;;;;;;2.35;1.00;;;;;;;9.05;53.84;97347.94;5005884;28;20038;-63
2023/12/28 04:06:37;;;;;;;3.47;1.30;;;;;;;9.00;54.02;97347.84;4997269;28;20050;-64
2023/12/28 04:09:04;;;;;;;2.38;1.10;;;;;;;9.09;54.06;97355.31;4995739;28;20478;-63
2023/12/28 04:11:31;;;;;;;1.92;0.90;;;;;;;9.19;54.29;97359.25;5001342;28;20732;-64
2023/12/28 04:13:58;;;;;;;3.10;1.10;;;;;;;9.29;54.59;97355.94;4989128;28;20049;-64
2023/12/28 04:16:24;;;;;;;3.10;1.10;;;;;;;9.35;54.63;97357.63;4995883;28;20131;-63
2023/12/28 04:18:51;;;;;;;3.17;1.00;;;;;;;9.39;54.95;97352.59;4991425;28;20132;-64
2023/12/28 04:21:18;;;;;;;2.13;0.90;;;;;;;9.46;55.17;97351.34;5001024;28;20045;-63
2023/12/28 04:23:45;;;;;;;2.42;1.08;;;;;;;9.55;55.23;97353.66;5001078;28;20425;-64
2023/12/28 04:26:11;;;;;;;1.95;0.77;;;;;;;9.54;55.61;97355.53;5007988;28;20421;-64
2023/12/28 04:28:38;;;;;;;2.72;0.85;;;;;;;9.53;56.36;97356.59;5001459;28;20066;-64
2023/12/28 04:31:06;;;;;;;1.95;0.80;;;;;;;9.61;56.69;97358.88;4998287;28;20648;-63
2023/12/28 04:33:33;;;;;;;2.60;1.00;;;;;;;9.67;57.10;97350.84;5004340;28;20674;-64
2023/12/28 04:36:05;;;;;;;3.47;1.10;;;;;;;9.63;57.60;97348.63;4994874;28;20068;-63
2023/12/28 04:38:32;;;;;;;2.83;1.10;;;;;;;9.63;58.03;97353.25;5001743;28;20042;-64
2023/12/28 04:41:00;;;;;;;1.85;0.85;;;;;;;9.58;58.59;97350.47;4996829;28;20058;-63
2023/12/28 04:43:26;;;;;;;2.40;1.02;;;;;;;9.53;59.46;97355.75;4995267;28;20050;-64
2023/12/28 04:45:53;;;;;;;2.85;0.90;;;;;;;9.53;60.40;97350.34;5017507;28;20049;-66
2023/12/28 04:48:20;;;;;;;1.83;0.85;;;;;;;9.43;61.50;97353.75;5003776;28;20060;-66
2023/12/28 04:50:48;;;;;;;1.58;0.80;;;;;;;9.37;62.13;97347.41;5002098;28;20054;-66
2023/12/28 04:53:15;;;;;;;2.90;1.00;;;;;;;9.34;62.95;97359.53;4998645;28;20042;-66
2023/12/28 04:55:42;;;;;;;2.00;1.00;;;;;;;9.39;63.35;97368.81;5008188;28;20051;-66
2023/12/28 04:58:11;;;;;;;1.98;0.80;;;;;;;9.48;63.15;97370.84;4998616;28;20112;-66
2023/12/28 05:00:38;;;;;;;2.47;0.90;;;;;;;9.49;63.28;97377.91;5003342;28;20401;-66
2023/12/28 05:03:06;;;;;;;1.25;0.68;;;;;;;9.52;63.74;97379.28;4996779;28;20046;-67
2023/12/28 05:05:32;;;;;;;3.00;0.95;;;;;;;9.56;63.71;97375.03;5003413;28;20045;-66
2023/12/28 05:07:59;;;;;;;2.22;1.45;;;;;;;9.50;64.32;97368.72;4996550;28;20056;-66
2023/12/28 05:10:27;;;;;;;1.35;0.75;;;;;;;9.57;64.43;97368.56;5016397;28;20041;-66
2023/12/28 05:12:54;;;;;;;3.80;0.90;;;;;;;9.59;64.80;97363.72;4999041;28;20056;-67
2023/12/28 05:15:28;;;;;;;2.90;1.10;;;;;;;9.60;65.76;97368.06;4990094;28;20052;-66
2023/12/28 05:17:55;;;;;;;2.22;1.00;;;;;;;9.70;66.09;97361.97;5001045;28;20599;-67
2023/12/28 05:20:22;;;;;;;1.40;0.75;;;;;;;9.69;67.08;97360.34;4994751;28;20105;-67
2023/12/28 05:22:49;;;;;;;1.85;1.13;;;;;;;9.83;67.55;97363.53;5001871;28;20041;-66
2023/12/28 05:25:16;;;;;;;3.78;1.00;;;;;;;10.02;68.14;97383.03;4990344;28;20096;-67
2023/12/28 05:27:43;;;;;;;1.92;0.63;;;;;;;10.06;69.16;97387.94;5001279;28;20050;-67
2023/12/28 05:30:10;;;;;;;1.70;0.70;;;;;;;10.09;70.20;97384.72;4997783;28;20126;-66
2023/12/28 05:32:38;;;;;;;1.95;0.63;;;;;;;10.12;71.06;97379.66;5004232;28;20042;-67
2023/12/28 05:35:05;;;;;;;3.65;0.90;;;;;;;10.03;72.80;97383.88;5000485;28;20513;-67
2023/12/28 05:37:31;;;;;;;2.00;0.60;;;;;;;10.07;73.99;97400.41;4996167;28;20045;-66
2023/12/28 05:39:58;;;;;;;1.40;0.77;;;;;;;10.17;75.49;97403.25;5000371;28;20528;-67
2023/12/28 05:42:24;;;;;;;2.60;0.80;;;;;;;10.17;77.26;97405.16;4998523;28;20046;-67
2023/12/28 05:44:51;;;;;;;1.98;0.80;;;;;;;10.13;78.12;97402.94;4992865;28;20114;-67
2023/12/28 05:47:17;;;;;;;2.35;0.90;;;;;;;10.16;78.98;97393.50;4996079;28;20042;-66
2023/12/28 05:49:44;;;;;;;1.35;0.60;;;;;;;10.11;79.72;97391.56;4995518;28;20659;-67
2023/12/28 05:52:14;;;;;;;1.90;0.77;;;;;;;10.09;80.68;97377.44;5003070;28;20045;-67
2023/12/28 05:54:43;;;;;;;3.65;0.80;;;;;;;10.02;81.46;97382.19;4999713;28;20124;-66
2023/12/28 05:57:10;;;;;;;2.58;0.93;;;;;;;9.98;81.63;97376.47;4998684;28;20058;-67
2023/12/28 05:59:40;;;;;;;2.72;1.00;;;;;;;9.92;81.84;97382.06;4999538;28;20048;-66
2023/12/28 06:02:07;;;;;;;1.15;0.50;;;;;;;9.94;81.72;97385.31;4994426;28;20680;-66
2023/12/28 06:04:33;;;;;;;1.92;0.85;;;;;;;9.88;81.82;97390.66;5000071;28;20038;-66
2023/12/28 06:07:02;;;;;;;2.85;1.00;;;;;;;9.94;81.46;97399.69;4997254;28;20635;-67
2023/12/28 06:09:28;;;;;;;1.75;0.85;;;;;;;9.99;79.80;97399.75;5002725;28;20128;-66
2023/12/28 06:11:55;;;;;;;3.15;1.00;;;;;;;10.05;78.97;97403.34;5002414;28;20453;-67
2023/12/28 06:14:22;;;;;;;3.10;1.35;;;;;;;9.99;78.62;97413.28;5003548;28;20070;-67
2023/12/28 06:16:48;;;;;;;1.65;0.82;;;;;;;10.02;78.59;97409.25;5001856;28;20050;-67
2023/12/28 06:19:15;;;;;;;2.58;0.85;;;;;;;10.02;77.59;97404.66;5002125;28;20045;-67
2023/12/28 06:21:42;;;;;;;2.15;1.00;;;;;;;9.94;77.75;97405.09;5000601;28;20053;-67
2023/12/28 06:24:09;;;;;;;3.22;0.95;;;;;;;10.04;77.48;97404.44;5003845;28;20493;-67
2023/12/28 06:26:40;;;;;;;5.32;1.17;;;;;;;10.03;77.22;97413.63;4996819;28;20042;-67
2023/12/28 06:29:07;;;;;;;3.63;1.25;;;;;;;9.96;77.55;97421.91;4997655;28;20560;-67
2023/12/28 06:31:35;;;;;;;1.77;0.82;;;;;;;9.92;77.84;97417.22;4997367;28;20126;-67
2023/12/28 06:34:06;;;;;;;1.65;0.85;;;;;;;9.89;79.18;97418.53;5003107;28;20112;-66
2023/12/28 06:36:33;;;;;;;2.90;0.85;;;;;;;9.88;83.54;97427.72;4998495;28;20054;-66
2023/12/28 06:39:00;;;;;;;2.60;0.85;;;;;;;9.94;87.28;97429.44;4995177;28;20038;-66
2023/12/28 06:41:27;;;;;;;1.75;0.65;;;;;;;9.95;89.16;97441.09;5000872;28;20033;-66
2023/12/28 06:43:53;;;;;;;1.63;0.70;;;;;;;9.92;90.00;97439.69;4999399;28;20529;-66
2023/12/28 06:46:20;;;;;;;1.35;0.60;;;;;;;9.89;91.29;97437.47;4995683;28;20693;-66
2023/12/28 06:48:47;;;;;;;2.50;0.82;;;;;;;9.74;94.28;97441.53;4994363;28;20060;-66
2023/12/28 06:51:21;;;;;;;2.13;0.73;;;;;;;9.76;94.82;97431.31;4991698;28;20043;-66
2023/12/28 06:53:48;;;;;;;1.38;0.70;;;;;;;9.71;95.98;97433.94;4998359;28;20053;-66
2023/12/28 06:56:16;;;;;;;2.80;0.70;;;;;;;9.68;97.75;97434.41;5004638;28;20420;-66
2023/12/28 06:58:43;;;;;;;1.48;0.70;;;;;;;9.61;98.94;97431.03;5004982;28;20414;-66
2023/12/28 07:01:11;;;;;;;2.25;0.85;;;;;;;9.53;100.00;97437.69;5005381;28;20052;-66
2023/12/28 07:03:38;;;;;;;1.80;0.80;;;;;;;9.42;100.00;97447.50;4997864;28;20456;-66
2023/12/28 07:06:05;;;;;;;1.75;0.90;;;;;;;9.32;100.00;97447.31;5006390;28;20041;-66
2023/12/28 07:08:31;;;;;;;1.70;0.90;;;;;;;9.33;100.00;97457.06;5004593;28;21029;-66
2023/12/28 07:11:02;;;;;;;1.70;0.90;;;;;;;9.26;100.00;97453.66;5003992;28;20051;-66
2023/12/28 07:13:29;;;;;;;4.43;1.05;;;;;;;9.30;100.00;97447.56;4994222;28;20048;-66
2023/12/28 07:15:55;;;;;;;2.13;0.90;;;;;;;9.43;100.00;97457.22;4999005;28;20048;-66
2023/12/28 07:18:25;;;;;;;2.88;0.82;;;;;;;9.34;100.00;97447.88;5000250;28;20049;-66
2023/12/28 07:20:52;;;;;;;3.15;0.93;;;;;;;9.28;100.00;97446.97;4999999;28;20037;-66
2023/12/28 07:23:19;;;;;;;1.63;0.80;;;;;;;9.34;100.00;97447.88;5006934;28;20501;-66
2023/12/28 07:25:45;;;;;;;1.80;0.75;;;;;;;9.30;99.84;97452.13;5006514;28;20080;-66
2023/12/28 07:28:12;;;;;;;2.83;1.00;;;;;;;9.26;100.00;97451.81;5005381;28;20069;-66
2023/12/28 07:30:41;;;;;;;3.65;1.10;;;;;;;9.33;98.99;97454.34;5003172;28;20612;-66
2023/12/28 07:33:08;;;;;;;2.90;1.35;;;;;;;9.35;98.05;97457.63;5000836;28;20095;-66
2023/12/28 07:35:34;;;;;;;2.97;0.88;;;;;;;9.36;97.83;97468.19;5004403;28;20041;-66
2023/12/28 07:38:01;;;;;;;3.60;1.00;;;;;;;9.32;97.83;97477.84;5005450;28;20686;-66
2023/12/28 07:40:28;;;;;;;1.77;0.80;;;;;;;9.27;98.50;97463.41;5006711;28;20038;-66
2023/12/28 07:42:54;;;;;;;2.95;1.00;;;;;;;9.26;98.59;97459.91;4992021;28;20124;-66
2023/12/28 07:45:23;;;;;;;2.90;0.85;;;;;;;9.23;98.40;97471.19;4999008;28;20042;-66
2023/12/28 07:47:51;;;;;;;2.22;0.95;;;;;;;9.26;98.08;97473.41;5006171;28;20054;-66
2023/12/28 07:50:18;;;;;;;2.88;0.77;;;;;;;9.20;98.17;97475.19;4999759;28;20061;-66
2023/12/28 07:52:46;;;;;;;2.08;1.10;;;;;;;9.23;97.41;97473.88;4998096;28;20533;-66
2023/12/28 07:55:13;;;;;;;4.30;1.42;;;;;;;9.27;96.86;97471.50;4996529;28;20054;-66
2023/12/28 07:57:40;;;;;;;2.25;1.20;;;;;;;9.31;95.78;97467.28;5004000;28;20057;-66
2023/12/28 08:00:09;;;;;;;2.53;1.15;;;;;;;9.37;95.27;97474.44;4999979;28;20057;-66
2023/12/28 08:02:35;;;;;;;2.08;0.90;;;;;;;9.43;94.97;97480.75;4998464;28;20555;-66
2023/12/28 08:05:02;;;;;;;2.03;0.85;;;;;;;9.37;95.25;97474.44;5003781;28;20505;-66
2023/12/28 08:07:29;;;;;;;1.85;0.80;;;;;;;9.43;95.06;97492.38;5001582;28;20045;-66
2023/12/28 08:09:56;;;;;;;3.15;0.90;;;;;;;9.43;95.02;97492.38;4996648;28;20053;-66
2023/12/28 08:12:24;;;;;;;4.00;1.50;;;;;;;9.27;96.16;97491.25;4995646;28;20764;-66
2023/12/28 08:14:50;;;;;;;6.35;1.13;;;;;;;9.24;96.43;97489.03;4999257;28;20513;-66
2023/12/28 08:17:17;;;;;;;1.80;0.82;;;;;;;9.26;96.59;97492.34;5007192;28;20587;-66
2023/12/28 08:19:43;;;;;;;2.35;0.88;;;;;;;9.23;96.90;97499.03;4998153;28;20050;-66
2023/12/28 08:22:10;;;;;;;2.30;1.10;;;;;;;9.18;97.18;97498.13;4987855;28;20074;-66
2023/12/28 08:24:37;;;;;;;2.40;0.90;;;;;;;9.21;97.99;97494.91;5000005;28;20284;-66
2023/12/28 08:27:04;;;;;;;2.47;1.10;;;;;;;9.24;98.92;97491.72;5003552;28;20046;-66
2023/12/28 08:29:30;;;;;;;2.92;0.90;;;;;;;9.22;99.27;97489.28;5001341;28;20042;-66
2023/12/28 08:31:57;;;;;;;2.85;1.20;;;;;;;9.15;100.00;97495.88;4999158;28;20045;-66
2023/12/28 08:34:23;;;;;;;2.65;1.15;;;;;;;9.02;100.00;97486.16;5001381;28;20073;-66
2023/12/28 08:36:50;;;;;;;2.33;1.08;;;;;;;9.05;100.00;97488.38;5001601;28;20063;-66
2023/12/28 08:39:17;;;;;;;3.42;0.98;;;;;;;8.95;100.00;97492.53;5003136;28;20042;-66
2023/12/28 08:41:43;;;;;;;2.15;1.10;;;;;;;8.93;100.00;97491.97;5005267;28;20034;-65
2023/12/28 08:44:10;;;;;;;2.25;1.00;;;;;;;8.91;100.00;97502.16;4999505;28;20049;-66
2023/12/28 08:46:36;;;;;;;1.42;0.90;;;;;;;8.89;100.00;97507.00;5002994;28;20069;-66
2023/12/28 08:49:03;;;;;;;2.65;1.10;;;;;;;8.84;100.00;97502.28;5002898;28;20091;-66
2023/12/28 08:51:30;;;;;;;3.47;1.23;;;;;;;8.74;100.00;97493.16;5000711;28;20044;-66
2023/12/28 08:53:56;;;;;;;3.63;1.20;;;;;;;8.68;100.00;97492.22;5002680;28;20045;-66
2023/12/28 08:56:23;;;;;;;2.70;1.13;;;;;;;8.67;100.00;97487.88;5002267;28;20057;-66
2023/12/28 08:58:51;;;;;;;2.30;1.05;;;;;;;8.72;100.00;97490.69;4994497;28;20046;-66
2023/12/28 09:01:22;;;;;;;3.85;1.08;;;;;;;8.83;100.00;97489.03;5000164;28;20118;-66
2023/12/28 09:03:49;;;;;;;;;;;;;;;8.75;100.00;97487.53;5002664;28;20529;-66
2023/12/28 09:06:17;;;;;;;3.95;1.20;;;;;;;8.72;100.00;97479.88;5005355;28;19928;-66
2023/12/28 09:08:47;;;;;;;2.40;0.98;;;;;;;8.76;100.00;97477.53;5001970;28;20058;-66
2023/12/28 09:11:14;;;;;;;3.25;1.42;;;;;;;8.79;100.00;97485.16;5000694;28;20042;-66
2023/12/28 09:13:41;;;;;;;2.83;1.20;;;;;;;8.82;100.00;97493.59;5001589;28;20045;-68
2023/12/28 09:16:10;;;;;;;1.90;0.95;;;;;;;8.69;100.00;97497.38;4995253;28;20068;-68
2023/12/28 09:18:38;;;;;;;3.13;1.40;;;;;;;8.67;100.00;97502.19;5000064;28;20069;-67
2023/12/28 09:21:05;;;;;;;2.60;1.25;;;;;;;8.69;100.00;97497.38;4995567;28;20665;-68
2023/12/28 09:23:33;;;;;;;2.42;1.10;;;;;;;8.68;100.00;97482.25;4995805;28;20042;-68
2023/12/28 09:26:03;;;;;;;1.60;0.85;;;;;;;8.80;100.00;97500.28;4995048;28;20041;-68
2023/12/28 09:28:30;;;;;;;2.13;1.20;;;;;;;8.72;100.00;97501.47;5002112;28;20050;-68
2023/12/28 09:30:57;;;;;;;3.70;1.50;;;;;;;8.77;100.00;97506.19;4999039;28;20046;-68
2023/12/28 09:33:24;;;;;;;4.43;1.30;;;;;;;8.88;100.00;97512.63;4999185;28;20071;-68
2023/12/28 09:35:50;;;;;;;5.53;1.50;;;;;;;8.82;100.00;97511.69;5001724;28;20472;-68
2023/12/28 09:38:19;;;;;;;4.28;1.25;;;;;;;8.97;100.00;97512.03;5001791;28;20057;-67
2023/12/28 09:40:46;;;;;;;3.55;1.20;;;;;;;9.16;100.00;97525.38;4999439;28;20120;-68
2023/12/28 09:43:21;;;;;;;3.38;1.13;;;;;;;9.23;100.00;97531.47;4994019;28;20133;-67
2023/12/28 09:45:48;;;;;;;2.60;1.02;;;;;;;9.43;100.00;97532.91;4999627;28;20053;-67
2023/12/28 09:48:19;;;;;;;1.73;0.90;;;;;;;9.60;98.88;97532.97;4996533;28;20638;-68
2023/12/28 09:50:54;;;;;;;2.58;0.75;;;;;;;9.76;96.54;97530.53;5001164;28;20049;-68
2023/12/28 09:53:25;;;;;;;2.63;1.23;;;;;;;9.81;96.08;97529.81;4993139;28;20042;-68
2023/12/28 09:55:52;;;;;;;3.08;1.00;;;;;;;9.79;95.11;97532.75;4998365;28;20203;-67
2023/12/28 09:58:20;;;;;;;2.30;1.02;;;;;;;9.74;95.77;97530.78;4994380;28;20049;-68
2023/12/28 10:00:48;;;;;;;3.05;1.00;;;;;;;9.82;95.43;97531.44;5000621;28;20125;-68
2023/12/28 10:03:17;;;;;;;4.03;1.55;;;;;;;9.83;96.68;97542.03;4995975;28;20068;-68
2023/12/28 10:05:47;;;;;;;1.92;1.00;;;;;;;9.85;96.78;97528.28;4997027;28;20088;-68
2023/12/28 10:08:15;;;;;;;2.22;1.00;;;;;;;9.78;98.55;97525.72;4995819;28;20115;-68
2023/12/28 10:10:43;;;;;;;1.50;0.75;;;;;;;9.72;98.84;97515.84;5000457;28;20045;-68
2023/12/28 10:13:15;;;;;;;2.60;1.00;;;;;;;9.47;100.00;97525.97;4994732;28;20109;-68
2023/12/28 10:15:43;;;;;;;2.35;1.10;;;;;;;9.47;100.00;97533.28;4998935;28;20046;-65
2023/12/28 10:18:10;;;;;;;2.92;1.15;;;;;;;9.43;100.00;97519.41;4992533;28;20047;-66
2023/12/28 10:20:37;;;;;;;3.00;0.80;;;;;;;9.47;100.00;97511.66;4996762;28;20050;-65
2023/12/28 10:23:04;;;;;;;2.40;1.10;;;;;;;9.56;100.00;97512.91;4999234;28;20070;-66
2023/12/28 10:25:32;;;;;;;2.35;1.00;;;;;;;9.59;100.00;97508.88;4999461;28;20049;-65
2023/12/28 10:28:05;;;;;;;2.22;1.02;;;;;;;9.72;100.00;97515.84;4997097;28;20042;-67
2023/12/28 10:30:32;;;;;;;1.67;0.90;;;;;;;9.81;100.00;97510.88;5000735;28;20513;-67
2023/12/28 10:32:59;;;;;;;2.13;0.85;;;;;;;9.88;100.00;97514.28;4997252;28;20062;-67
2023/12/28 10:35:26;;;;;;;2.20;0.90;;;;;;;9.82;100.00;97515.22;4975581;28;20556;-65
2023/12/28 10:37:59;;;;;;;4.47;1.60;;;;;;;9.77;100.00;97515.97;4990152;28;20066;-67
2023/12/28 10:40:26;;;;;;;1.70;0.82;;;;;;;10.03;100.00;97497.47;4973096;28;20172;-68
2023/12/28 10:43:01;;;;;;;2.08;0.95;;;;;;;9.92;100.00;97493.78;4992626;28;20038;-69
2023/12/28 10:50:03;;;;;;;2.05;0.80;;;;;;;9.89;100.00;97497.78;4673612;28;21003;-61
2023/12/28 11:00:20;;;;;;;3.70;1.08;;;;;;;9.75;100.00;97488.34;4964079;28;20051;-67
2023/12/28 11:02:51;;;;;;;1.42;0.77;;;;;;;9.73;100.00;97480.47;4978636;28;20050;-62
2023/12/28 11:05:21;;;;;;;2.35;0.98;;;;;;;9.61;100.00;97474.31;4970425;28;20071;-65
2023/12/28 11:07:53;;;;;;;2.28;1.02;;;;;;;9.53;100.00;97480.09;4967589;28;20034;-63
2023/12/28 11:10:23;;;;;;;1.90;0.90;;;;;;;9.55;100.00;97481.50;4969796;28;20082;-63
2023/12/28 11:12:54;;;;;;;3.03;1.60;;;;;;;9.58;100.00;97478.31;4968788;28;20046;-61
2023/12/28 11:15:23;;;;;;;3.33;1.25;;;;;;;9.59;100.00;97487.25;4972161;28;20046;-63
2023/12/28 11:17:50;;;;;;;2.08;1.00;;;;;;;9.64;100.00;97487.34;4973538;28;20058;-62
2023/12/28 11:20:17;;;;;;;3.25;1.40;;;;;;;9.66;100.00;97485.19;4978870;28;20042;-62
2023/12/28 11:22:44;;;;;;;2.80;1.05;;;;;;;9.65;100.00;97488.97;4972742;28;20129;-62
2023/12/28 11:25:16;;;;;;;1.63;0.82;;;;;;;9.68;100.00;97484.97;4973760;28;20184;-66
2023/12/28 11:27:42;;;;;;;4.57;1.00;;;;;;;9.61;100.00;97482.41;4978084;28;20073;-64
2023/12/28 11:30:10;;;;;;;2.95;1.35;;;;;;;9.63;100.00;97469.50;4976952;28;20424;-65
2023/12/28 11:32:40;;;;;;;2.58;1.27;;;;;;;9.69;100.00;97468.50;4975566;28;20054;-61
2023/12/28 11:35:10;;;;;;;2.30;1.30;;;;;;;9.71;100.00;97460.97;4976876;28;20046;-64
2023/12/28 11:37:40;;;;;;;2.65;0.93;;;;;;;9.64;100.00;97463.00;4974103;28;20050;-72
2023/12/28 11:40:16;;;;;;;2.08;0.95;;;;;;;9.76;100.00;97461.06;4976561;28;20514;-69
2023/12/28 11:42:53;;;;;;;1.88;0.70;;;;;;;9.78;100.00;97460.00;4979373;28;20046;-71
2023/12/28 11:45:22;;;;;;;2.92;1.00;;;;;;;9.74;100.00;97460.47;4981099;28;20723;-67
2023/12/28 11:48:02;;;;;;;2.92;1.05;;;;;;;9.70;100.00;97455.81;4980375;28;20105;-63
2023/12/28 11:50:30;;;;;;;5.20;2.10;;;;;;;9.72;100.00;97456.38;4977717;28;20150;-69
2023/12/28 11:52:56;;;;;;;1.83;1.00;;;;;;;9.77;100.00;97456.50;4979618;28;20049;-67
2023/12/28 11:55:23;;;;;;;3.38;1.10;;;;;;;9.81;100.00;97448.69;4979019;28;20072;-66